Time;durP1;ratioP1;P1;durP2;ratioP2;P2;SDS_P1;SDS_P2;PMS_P1;PMS_P2;Temp;Humidity;BMP_temperature;BMP_pressure;BME280_temperature;BME280_humidity;BME280_pressure;Samples;Min_cycle;Max_cycle;Signal;HPM_P1;HPM_P2
2022/08/12 00:43:58;;;;;;;10.00;2.92;;;;;;;;;;10133062;28;20072;-56
2022/08/12 00:48:51;;;;;;;12.60;4.32;;;;;;;;;;10134496;28;20094;-57
2022/08/12 00:53:44;;;;;;;13.32;6.82;;;;;;;;;;10148365;28;20052;-57
2022/08/12 00:58:39;;;;;;;4.45;4.03;;;;;;;;;;10142014;28;20077;-57
2022/08/12 01:14:03;;;;;;;5.20;4.10;;;;;;;;;;10132198;28;20056;-57
2022/08/12 01:18:57;;;;;;;5.00;3.08;;;;;;;;;;10122321;28;20508;-56
2022/08/12 01:24:08;;;;;;;3.08;2.33;;;;;;;;;;10137306;28;20063;-57
2022/08/12 01:29:26;;;;;;;5.63;2.50;;;;;;;;;;10130035;28;20872;-57
2022/08/12 01:34:29;;;;;;;2.42;2.22;;;;;;;;;;10129280;28;20043;-57
2022/08/12 01:39:33;;;;;;;3.33;2.10;;;;;;;;;;10141113;28;20045;-57
2022/08/12 01:44:27;;;;;;;2.63;2.43;;;;;;;;;;10127539;28;20079;-56
2022/08/12 01:49:48;;;;;;;4.90;2.17;;;;;;;;;;10127089;28;20495;-57
2022/08/12 01:54:43;;;;;;;4.10;2.83;;;;;;;;;;10124045;28;20083;-57
2022/08/12 01:59:52;;;;;;;2.72;2.35;;;;;;;;;;10116763;28;20049;-57
2022/08/12 02:16:08;;;;;;;6.63;2.58;;;;;;;;;;10126489;28;20393;-57
2022/08/12 02:21:33;;;;;;;5.50;2.60;;;;;;;;;;10099443;28;20083;-56
2022/08/12 02:26:29;;;;;;;4.10;2.70;;;;;;;;;;10124579;28;20048;-56
2022/08/12 02:31:23;;;;;;;4.03;2.70;;;;;;;;;;10114687;28;20044;-56
2022/08/12 02:36:36;;;;;;;5.47;3.08;;;;;;;;;;10127939;28;20139;-56
2022/08/12 02:41:29;;;;;;;5.00;3.08;;;;;;;;;;10123754;28;20491;-56
2022/08/12 02:46:29;;;;;;;5.20;3.40;;;;;;;;;;10132204;28;20442;-56
2022/08/12 02:51:25;;;;;;;2.83;2.50;;;;;;;;;;10152764;28;20063;-56
2022/08/12 02:56:19;;;;;;;3.20;2.53;;;;;;;;;;10120642;28;20491;-56
2022/08/12 03:01:33;;;;;;;3.15;2.20;;;;;;;;;;10141211;28;20045;-56
2022/08/12 03:06:47;;;;;;;3.15;2.65;;;;;;;;;;10132169;28;20533;-57
2022/08/12 03:12:23;;;;;;;4.18;2.33;;;;;;;;;;10128745;28;20044;-57
2022/08/12 03:17:27;;;;;;;2.55;2.33;;;;;;;;;;10140708;28;20052;-56
2022/08/12 03:22:22;;;;;;;4.75;2.50;;;;;;;;;;10125330;28;20043;-56
2022/08/12 03:27:16;;;;;;;2.50;2.30;;;;;;;;;;10131095;28;20049;-57
2022/08/12 03:32:10;;;;;;;3.88;2.30;;;;;;;;;;10138859;28;20045;-56
2022/08/12 03:37:25;;;;;;;3.15;2.78;;;;;;;;;;10151178;28;20132;-56
2022/08/12 03:42:26;;;;;;;4.55;2.15;;;;;;;;;;10132076;28;20476;-57
2022/08/12 04:03:51;;;;;;;3.75;2.65;;;;;;;;;;10137530;28;20465;-56
2022/08/12 04:08:46;;;;;;;6.38;3.80;;;;;;;;;;10119477;28;20598;-57
2022/08/12 04:13:40;;;;;;;3.80;3.33;;;;;;;;;;10133269;28;20039;-56
2022/08/12 04:18:34;;;;;;;4.43;3.10;;;;;;;;;;10131614;28;20052;-57
2022/08/12 04:23:27;;;;;;;4.88;2.83;;;;;;;;;;10128641;28;20045;-57
2022/08/12 04:28:27;;;;;;;7.97;3.80;;;;;;;;;;10128822;28;20091;-56
2022/08/12 04:33:20;;;;;;;4.93;4.40;;;;;;;;;;10126890;28;20111;-57
2022/08/12 04:38:14;;;;;;;6.90;4.38;;;;;;;;;;10144694;28;20503;-56
2022/08/12 04:43:08;;;;;;;9.00;4.65;;;;;;;;;;10149176;28;20044;-57
2022/08/12 04:48:21;;;;;;;7.68;5.32;;;;;;;;;;10140393;28;20127;-57
2022/08/12 04:53:16;;;;;;;5.80;5.05;;;;;;;;;;10138266;28;20046;-56
2022/08/12 04:58:11;;;;;;;5.65;4.32;;;;;;;;;;10132633;28;20076;-57
2022/08/12 05:03:06;;;;;;;9.10;5.75;;;;;;;;;;10134981;28;20675;-56
2022/08/12 05:08:00;;;;;;;10.13;4.70;;;;;;;;;;10125929;28;20599;-57
2022/08/12 05:12:58;;;;;;;5.95;4.72;;;;;;;;;;10134716;28;20045;-56
2022/08/12 05:17:50;;;;;;;5.22;4.72;;;;;;;;;;10125910;28;20064;-56
2022/08/12 05:22:44;;;;;;;6.28;5.68;;;;;;;;;;10146499;28;20098;-56
2022/08/12 05:27:39;;;;;;;8.85;6.28;;;;;;;;;;10121264;28;20068;-55
2022/08/12 05:32:50;;;;;;;8.88;6.55;;;;;;;;;;10126158;28;20051;-64
2022/08/12 05:37:45;;;;;;;8.98;6.72;;;;;;;;;;10125078;28;20050;-65
2022/08/12 05:42:38;;;;;;;8.80;4.95;;;;;;;;;;10126510;28;20056;-66
2022/08/12 05:47:32;;;;;;;4.38;3.10;;;;;;;;;;10137266;28;20044;-65
2022/08/12 05:52:44;;;;;;;9.20;2.83;;;;;;;;;;10124941;28;20580;-63
2022/08/12 05:57:40;;;;;;;9.38;2.72;;;;;;;;;;10143506;28;20044;-62
2022/08/12 06:02:33;;;;;;;2.55;2.22;;;;;;;;;;10125485;28;20045;-65
2022/08/12 06:07:26;;;;;;;3.60;2.60;;;;;;;;;;10140757;28;20257;-65
2022/08/12 06:12:41;;;;;;;4.70;2.20;;;;;;;;;;10128255;28;20051;-64
2022/08/12 06:17:36;;;;;;;3.90;2.72;;;;;;;;;;10113957;28;20052;-62
2022/08/12 06:22:29;;;;;;;5.50;2.00;;;;;;;;;;10125393;28;20063;-62
2022/08/12 06:27:23;;;;;;;4.53;2.70;;;;;;;;;;10128090;28;20052;-63
2022/08/12 06:32:16;;;;;;;2.55;2.30;;;;;;;;;;10128414;28;20186;-64
2022/08/12 06:37:10;;;;;;;7.53;2.30;;;;;;;;;;10128883;28;20056;-64
2022/08/12 06:47:24;;;;;;;3.15;2.70;;;;;;;;;;10131480;28;20041;-63
2022/08/12 06:52:21;;;;;;;3.30;2.78;;;;;;;;;;10129981;28;20087;-64
2022/08/12 06:57:15;;;;;;;7.10;3.13;;;;;;;;;;10127618;28;20049;-66
2022/08/12 07:02:28;;;;;;;6.07;2.47;;;;;;;;;;10125612;28;20780;-63
2022/08/12 07:07:28;;;;;;;2.80;2.42;;;;;;;;;;10118860;28;20057;-63
2022/08/12 07:12:21;;;;;;;6.72;2.55;;;;;;;;;;10121129;28;20700;-66
2022/08/12 07:17:14;;;;;;;6.05;2.83;;;;;;;;;;10116608;28;20055;-65
2022/08/12 07:22:09;;;;;;;5.03;2.40;;;;;;;;;;10118576;28;20052;-65
2022/08/12 07:27:02;;;;;;;2.83;2.40;;;;;;;;;;10116750;28;20053;-66
2022/08/12 07:31:58;;;;;;;4.22;2.60;;;;;;;;;;10108994;28;20052;-64
2022/08/12 07:36:51;;;;;;;5.25;2.65;;;;;;;;;;10138353;28;20145;-62
2022/08/12 07:41:45;;;;;;;5.90;3.13;;;;;;;;;;10134382;28;20092;-62
2022/08/12 07:46:42;;;;;;;8.70;2.83;;;;;;;;;;10132783;28;20460;-64
2022/08/12 07:51:35;;;;;;;2.33;2.10;;;;;;;;;;10126289;28;20143;-65
2022/08/12 07:56:30;;;;;;;3.00;2.55;;;;;;;;;;10138676;28;20053;-64
2022/08/12 08:01:23;;;;;;;4.13;2.17;;;;;;;;;;10118636;28;21332;-66
2022/08/12 08:16:52;;;;;;;6.95;3.15;;;;;;;;;;10161282;28;20045;-70
2022/08/12 08:21:45;;;;;;;4.78;2.13;;;;;;;;;;10153268;28;20064;-69
2022/08/12 08:26:57;;;;;;;7.30;1.80;;;;;;;;;;10549633;22;20815;31
2022/08/12 08:31:53;;;;;;;2.75;1.85;;;;;;;;;;10017422;28;20073;-56
2022/08/12 08:36:48;;;;;;;6.22;1.80;;;;;;;;;;10003322;28;20065;-58
2022/08/12 08:47:11;;;;;;;1.83;1.70;;;;;;;;;;10021974;28;20045;-58
2022/08/12 08:52:09;;;;;;;2.40;1.60;;;;;;;;;;10026466;28;20045;-59
2022/08/12 08:57:06;;;;;;;4.60;2.45;;;;;;;;;;10020917;28;20078;-59
2022/08/12 09:02:01;;;;;;;3.97;1.70;;;;;;;;;;9979098;28;20058;-56
2022/08/12 09:06:58;;;;;;;3.92;1.90;;;;;;;;;;9952641;28;20492;-59
2022/08/12 09:17:29;;;;;;;3.70;2.22;;;;;;;;;;10100938;28;20135;-57
2022/08/12 09:22:34;;;;;;;1.90;1.63;;;;;;;;;;10031857;28;20060;-58
2022/08/12 09:27:30;;;;;;;3.13;1.67;;;;;;;;;;10123979;28;20174;-57
2022/08/12 09:32:49;;;;;;;2.03;1.75;;;;;;;;;;10074718;28;20503;-57
2022/08/12 09:38:02;;;;;;;3.20;1.75;;;;;;;;;;10110707;28;20045;-57
2022/08/12 09:48:15;;;;;;;6.38;1.67;;;;;;;;;;10118832;28;20047;-56
2022/08/12 09:53:23;;;;;;;4.15;1.38;;;;;;;;;;10110008;28;20044;-58
2022/08/12 09:58:33;;;;;;;8.00;1.98;;;;;;;;;;10134661;28;20525;-57
2022/08/12 10:03:48;;;;;;;3.53;1.63;;;;;;;;;;10085291;28;20052;-58
2022/08/12 10:08:57;;;;;;;4.40;1.85;;;;;;;;;;10100383;28;20052;-56
2022/08/12 10:13:56;;;;;;;10.57;1.70;;;;;;;;;;10074570;28;20065;-56
2022/08/12 10:18:55;;;;;;;2.83;1.73;;;;;;;;;;10075967;28;20049;-56
2022/08/12 10:23:49;;;;;;;1.70;1.33;;;;;;;;;;10048377;28;20511;-59
2022/08/12 10:34:21;;;;;;;5.00;1.85;;;;;;;;;;10055455;28;20053;-58
2022/08/12 10:39:19;;;;;;;2.35;1.45;;;;;;;;;;10056768;28;20045;-59
2022/08/12 10:44:35;;;;;;;3.08;1.40;;;;;;;;;;10052564;28;20115;-59
2022/08/12 10:49:33;;;;;;;3.25;1.50;;;;;;;;;;10056418;28;20411;-58
2022/08/12 10:54:49;;;;;;;4.47;1.70;;;;;;;;;;10052818;28;20048;-57
2022/08/12 10:59:44;;;;;;;3.95;1.45;;;;;;;;;;10057159;28;20096;-56
2022/08/12 11:04:58;;;;;;;1.58;1.23;;;;;;;;;;10055061;28;20049;-57
2022/08/12 11:10:13;;;;;;;3.85;1.45;;;;;;;;;;10081979;28;20056;-59
2022/08/12 11:15:11;;;;;;;3.28;1.20;;;;;;;;;;10089343;28;20053;-57
2022/08/12 11:20:13;;;;;;;7.57;1.48;;;;;;;;;;10090447;28;20531;-58
2022/08/12 11:25:09;;;;;;;5.00;1.48;;;;;;;;;;10097277;28;20457;-57
2022/08/12 11:30:04;;;;;;;3.40;1.20;;;;;;;;;;10094384;28;20052;-57
2022/08/12 11:35:18;;;;;;;1.40;1.05;;;;;;;;;;10093321;28;20038;-58
2022/08/12 11:40:13;;;;;;;1.88;1.40;;;;;;;;;;10095102;28;20041;-58
2022/08/12 11:45:10;;;;;;;2.22;1.15;;;;;;;;;;10091251;28;20132;-58
2022/08/12 11:50:11;;;;;;;2.20;1.40;;;;;;;;;;10096124;28;20128;-61
2022/08/12 11:55:11;;;;;;;2.15;1.20;;;;;;;;;;10096486;28;20454;-59
2022/08/12 12:00:10;;;;;;;5.75;1.25;;;;;;;;;;10100471;28;20053;-59
2022/08/12 12:05:23;;;;;;;1.70;0.98;;;;;;;;;;10095026;28;20036;-58
2022/08/12 12:10:32;;;;;;;8.75;0.90;;;;;;;;;;10098470;28;20049;-60
2022/08/12 12:15:27;;;;;;;3.35;1.38;;;;;;;;;;10091519;28;20132;-60
2022/08/12 12:20:33;;;;;;;3.47;1.00;;;;;;;;;;10087563;28;20590;-62
2022/08/12 12:25:27;;;;;;;3.53;1.10;;;;;;;;;;10091582;28;20072;-59
2022/08/12 12:30:41;;;;;;;6.22;1.10;;;;;;;;;;10083724;28;20227;-59
2022/08/12 12:35:47;;;;;;;6.03;1.33;;;;;;;;;;10094483;28;20049;-58
2022/08/12 12:41:01;;;;;;;3.55;1.00;;;;;;;;;;10097022;28;20045;-59
2022/08/12 12:46:08;;;;;;;2.53;1.35;;;;;;;;;;10097529;28;20071;-60
2022/08/12 12:51:17;;;;;;;2.20;0.88;;;;;;;;;;10097517;28;20050;-60
2022/08/12 12:56:31;;;;;;;3.20;0.90;;;;;;;;;;10097674;28;20036;-59
2022/08/12 13:01:27;;;;;;;2.78;1.20;;;;;;;;;;10092962;28;20041;-60
2022/08/12 13:06:29;;;;;;;2.85;1.10;;;;;;;;;;10089520;28;20110;-59
2022/08/12 13:11:24;;;;;;;1.25;0.90;;;;;;;;;;10059419;28;20049;-59
2022/08/12 13:16:33;;;;;;;1.20;1.08;;;;;;;;;;10097332;28;20056;-59
2022/08/12 13:22:15;;;;;;;4.25;1.08;;;;;;;;;;10093895;28;20491;-59
2022/08/12 13:26:50;;;;;;;4.15;1.38;;;;;;;;;;10082454;28;20095;-59
2022/08/12 13:31:44;;;;;;;3.15;1.30;;;;;;;;;;10094170;28;20053;-57
2022/08/12 13:36:58;;;;;;;3.50;1.38;;;;;;;;;;10086619;28;20064;-58
2022/08/12 13:41:55;;;;;;;1.65;1.27;;;;;;;;;;10089708;28;20057;-58
2022/08/12 13:46:54;;;;;;;3.53;1.50;;;;;;;;;;10097488;28;20052;-58
2022/08/12 13:51:52;;;;;;;2.67;0.88;;;;;;;;;;10096008;28;20041;-58
2022/08/12 13:56:49;;;;;;;2.05;1.20;;;;;;;;;;10105329;28;20079;-58
2022/08/12 14:01:48;;;;;;;4.10;1.15;;;;;;;;;;10108345;28;20049;-58
2022/08/12 14:06:49;;;;;;;3.03;1.00;;;;;;;;;;10109077;28;20580;-59
2022/08/12 14:11:43;;;;;;;4.82;1.10;;;;;;;;;;10065477;28;20088;-60
2022/08/12 14:16:51;;;;;;;1.52;1.10;;;;;;;;;;10069226;28;20462;-59
2022/08/12 14:21:48;;;;;;;3.05;1.17;;;;;;;;;;10046063;28;20056;-58
2022/08/12 14:26:57;;;;;;;2.42;1.55;;;;;;;;;;10055177;28;20060;-59
2022/08/12 14:31:53;;;;;;;3.85;1.00;;;;;;;;;;10050579;28;20052;-58
2022/08/12 14:36:48;;;;;;;1.55;1.10;;;;;;;;;;10041578;28;20128;-58
2022/08/12 14:41:44;;;;;;;1.67;1.00;;;;;;;;;;10031845;28;20077;-57
2022/08/12 14:46:54;;;;;;;1.70;1.33;;;;;;;;;;10033264;28;20049;-57
2022/08/12 14:51:49;;;;;;;3.40;1.52;;;;;;;;;;10044502;28;20061;-57
2022/08/12 14:57:05;;;;;;;2.25;1.23;;;;;;;;;;10067514;28;20495;-58
2022/08/12 15:02:19;;;;;;;2.58;1.15;;;;;;;;;;10053290;28;20053;-57
2022/08/12 15:07:14;;;;;;;2.78;1.20;;;;;;;;;;10040438;28;20077;-57
2022/08/12 15:12:28;;;;;;;1.63;1.10;;;;;;;;;;10046941;28;20059;-57
2022/08/12 15:17:22;;;;;;;1.67;1.10;;;;;;;;;;10069933;28;20053;-57
2022/08/12 15:22:29;;;;;;;;;;;;;;;;;;10047815;28;20393;-57
2022/08/12 15:27:31;;;;;;;5.63;1.48;;;;;;;;;;10030959;28;19944;-57
2022/08/12 15:32:45;;;;;;;1.60;1.30;;;;;;;;;;10029942;28;20052;-58
2022/08/12 15:37:41;;;;;;;2.10;1.40;;;;;;;;;;10034767;28;20061;-58
2022/08/12 15:42:55;;;;;;;3.97;1.35;;;;;;;;;;10039974;28;20046;-58
2022/08/12 15:47:51;;;;;;;2.70;1.25;;;;;;;;;;10028561;28;20054;-58
2022/08/12 15:53:06;;;;;;;3.30;1.10;;;;;;;;;;10041872;28;20133;-59
2022/08/12 15:58:08;;;;;;;1.52;1.40;;;;;;;;;;10033338;28;20496;-58
2022/08/12 16:03:04;;;;;;;1.25;1.10;;;;;;;;;;10048818;28;20038;-58
2022/08/12 16:08:09;;;;;;;4.93;1.20;;;;;;;;;;10055483;28;20080;-58
2022/08/12 16:13:17;;;;;;;2.05;1.20;;;;;;;;;;10082999;28;20049;-58
2022/08/12 16:18:27;;;;;;;1.83;1.55;;;;;;;;;;10067830;28;20053;-58
2022/08/12 16:23:22;;;;;;;2.85;1.40;;;;;;;;;;10072863;28;20057;-58
2022/08/12 16:28:36;;;;;;;2.70;1.45;;;;;;;;;;10092598;28;20133;-58
2022/08/12 16:33:40;;;;;;;4.35;1.48;;;;;;;;;;10068588;28;20049;-58
2022/08/12 16:38:52;;;;;;;6.90;1.83;;;;;;;;;;10078956;28;20419;-58
2022/08/12 16:43:47;;;;;;;3.10;1.40;;;;;;;;;;10087470;28;20539;-58
2022/08/12 16:48:42;;;;;;;1.33;1.13;;;;;;;;;;10089726;28;20053;-58
2022/08/12 16:53:40;;;;;;;4.65;1.38;;;;;;;;;;10084046;28;20053;-58
2022/08/12 16:58:37;;;;;;;3.92;1.85;;;;;;;;;;10083166;28;20052;-59
2022/08/12 17:03:36;;;;;;;2.60;1.67;;;;;;;;;;10083827;28;20543;-58
2022/08/12 17:08:44;;;;;;;5.70;1.70;;;;;;;;;;10080814;28;20061;-58
2022/08/12 17:13:48;;;;;;;2.95;1.50;;;;;;;;;;10063079;28;20057;-58
2022/08/12 17:18:48;;;;;;;5.63;3.13;;;;;;;;;;10039892;28;20071;-58
2022/08/12 17:23:52;;;;;;;4.70;2.22;;;;;;;;;;10025374;28;20050;-57
2022/08/12 17:28:46;;;;;;;25.38;3.95;;;;;;;;;;10033681;28;20047;-58
2022/08/12 17:33:45;;;;;;;10.77;3.17;;;;;;;;;;10037199;28;20050;-59
2022/08/12 17:38:39;;;;;;;18.58;3.67;;;;;;;;;;10037539;28;20066;-58
2022/08/12 17:43:34;;;;;;;19.85;3.40;;;;;;;;;;10071032;28;20083;-60
2022/08/12 17:48:47;;;;;;;10.20;2.78;;;;;;;;;;10069975;28;20049;-58
2022/08/12 17:53:48;;;;;;;6.43;3.20;;;;;;;;;;10056800;28;20096;-58
2022/08/12 17:59:02;;;;;;;10.85;4.05;;;;;;;;;;10072392;28;20064;-57
2022/08/12 18:04:00;;;;;;;3.85;2.60;;;;;;;;;;10053627;28;20403;-58
2022/08/12 18:09:13;;;;;;;4.90;2.58;;;;;;;;;;10032393;28;20385;-57
2022/08/12 18:14:08;;;;;;;3.78;2.40;;;;;;;;;;10033356;28;20065;-57
2022/08/12 18:19:08;;;;;;;3.97;2.38;;;;;;;;;;10033227;28;20057;-57
2022/08/12 18:24:02;;;;;;;2.80;2.20;;;;;;;;;;10015618;28;20053;-58
2022/08/12 18:29:15;;;;;;;5.28;3.10;;;;;;;;;;10031726;28;20112;-57
2022/08/12 18:34:21;;;;;;;6.22;2.90;;;;;;;;;;10032821;28;20050;-57
2022/08/12 18:39:18;;;;;;;4.00;2.65;;;;;;;;;;10053980;28;20104;-57
2022/08/12 18:44:12;;;;;;;6.50;2.50;;;;;;;;;;10069613;28;20053;-57
2022/08/12 18:49:12;;;;;;;6.85;3.40;;;;;;;;;;10071127;28;20096;-57
2022/08/12 18:54:11;;;;;;;8.32;3.00;;;;;;;;;;10068915;28;20085;-58
2022/08/12 18:59:17;;;;;;;4.40;3.00;;;;;;;;;;10054970;28;20049;-58
2022/08/12 19:04:31;;;;;;;4.38;2.58;;;;;;;;;;10056456;28;20049;-58
2022/08/12 19:09:37;;;;;;;2.80;2.53;;;;;;;;;;10070183;28;20132;-58
2022/08/12 19:14:51;;;;;;;6.82;4.43;;;;;;;;;;10059465;28;20042;-59
2022/08/12 19:20:01;;;;;;;3.28;2.50;;;;;;;;;;10050892;28;20053;-56
2022/08/12 19:30:11;;;;;;;7.32;3.25;;;;;;;;;;10035699;28;20049;-57
2022/08/12 19:35:07;;;;;;;4.43;3.00;;;;;;;;;;10038905;28;20077;-57
2022/08/12 19:40:22;;;;;;;6.60;2.80;;;;;;;;;;10046895;28;20419;-56
2022/08/12 19:45:26;;;;;;;6.22;4.05;;;;;;;;;;10038831;28;20083;-54
2022/08/12 19:50:36;;;;;;;5.43;3.15;;;;;;;;;;10044571;28;20057;-53
2022/08/12 19:55:33;;;;;;;9.75;3.33;;;;;;;;;;10051136;28;20399;-51
2022/08/12 20:00:32;;;;;;;13.05;3.85;;;;;;;;;;10044572;28;20041;-51
2022/08/12 20:05:27;;;;;;;8.20;3.40;;;;;;;;;;10051994;28;20603;-53
2022/08/12 20:11:02;;;;;;;11.15;3.50;;;;;;;;;;10052188;28;20049;-52
2022/08/12 20:16:15;;;;;;;7.40;3.35;;;;;;;;;;10046346;28;20034;-52
2022/08/12 20:21:29;;;;;;;6.97;3.60;;;;;;;;;;10055784;28;20045;-52
2022/08/12 20:26:33;;;;;;;6.95;3.90;;;;;;;;;;10059705;28;20480;-50
2022/08/12 20:31:27;;;;;;;6.70;3.90;;;;;;;;;;10052150;28;20116;-62
2022/08/12 20:36:23;;;;;;;5.75;4.85;;;;;;;;;;10053034;28;20107;-62
2022/08/12 20:41:35;;;;;;;4.65;4.03;;;;;;;;;;10052238;28;20050;-62
2022/08/12 20:46:32;;;;;;;6.50;3.95;;;;;;;;;;10055113;28;20049;-63
2022/08/12 20:51:27;;;;;;;9.88;4.20;;;;;;;;;;10048164;28;20042;-64
2022/08/12 20:56:41;;;;;;;6.10;3.58;;;;;;;;;;10054157;28;20041;-63
2022/08/12 21:01:38;;;;;;;6.03;3.42;;;;;;;;;;10053632;28;20046;-62
2022/08/12 21:12:03;;;;;;;5.30;3.80;;;;;;;;;;10040428;28;20062;-61
2022/08/12 21:17:17;;;;;;;4.78;3.45;;;;;;;;;;10048988;28;20045;-61
2022/08/12 21:22:32;;;;;;;;;;;;;;;;;;10053437;28;20052;-61
2022/08/12 21:27:27;;;;;;;2.75;2.55;;;;;;;;;;10052505;28;20384;-60
2022/08/12 21:32:42;;;;;;;6.63;2.88;;;;;;;;;;10037777;28;20563;-60
2022/08/12 21:37:40;;;;;;;7.95;3.00;;;;;;;;;;10055238;28;20050;-60
2022/08/12 21:42:33;;;;;;;9.48;4.53;;;;;;;;;;10052150;28;20504;-59
2022/08/12 21:47:28;;;;;;;4.50;3.22;;;;;;;;;;10054468;28;20041;-61
2022/08/12 21:52:24;;;;;;;5.97;3.70;;;;;;;;;;10049500;28;20042;-62
2022/08/12 21:57:29;;;;;;;5.55;3.05;;;;;;;;;;10034131;28;20042;-61
2022/08/12 22:07:57;;;;;;;5.45;4.35;;;;;;;;;;10044849;28;20064;-62
2022/08/12 22:12:56;;;;;;;5.78;4.15;;;;;;;;;;10046663;28;20054;-62
2022/08/12 22:17:54;;;;;;;4.97;3.40;;;;;;;;;;10050885;28;20128;-62
2022/08/12 22:22:48;;;;;;;8.00;3.42;;;;;;;;;;10063489;28;20420;-62
2022/08/12 22:33:05;;;;;;;3.97;3.40;;;;;;;;;;10064992;28;20049;-62
2022/08/12 22:38:18;;;;;;;5.30;3.47;;;;;;;;;;10053849;28;20455;-62
2022/08/12 22:48:25;;;;;;;7.28;5.32;;;;;;;;;;10056678;28;20559;-62
2022/08/12 22:53:20;;;;;;;7.43;4.28;;;;;;;;;;10056817;28;20053;-61
2022/08/12 22:58:17;;;;;;;5.50;4.72;;;;;;;;;;10051735;28;20516;-61
2022/08/12 23:03:20;;;;;;;9.05;5.18;;;;;;;;;;10043061;28;20053;-61
2022/08/12 23:08:36;;;;;;;5.63;5.10;;;;;;;;;;10058098;28;20061;-61
2022/08/12 23:13:50;;;;;;;9.07;5.55;;;;;;;;;;10053289;28;20163;-61
2022/08/12 23:19:09;;;;;;;5.25;4.65;;;;;;;;;;10057576;28;20065;-62
2022/08/12 23:24:17;;;;;;;5.60;3.00;;;;;;;;;;10065095;28;20132;-62
2022/08/12 23:29:14;;;;;;;2.88;2.30;;;;;;;;;;10067326;28;20455;-62
2022/08/12 23:34:35;;;;;;;2.60;2.10;;;;;;;;;;10063844;28;20123;-61
2022/08/12 23:39:30;;;;;;;2.40;2.20;;;;;;;;;;10056536;28;20049;-62
2022/08/12 23:44:45;;;;;;;2.45;2.25;;;;;;;;;;10057425;28;20541;-60
2022/08/12 23:49:44;;;;;;;2.10;2.00;;;;;;;;;;10056207;28;20389;-61
2022/08/12 23:54:53;;;;;;;2.70;2.20;;;;;;;;;;10055260;28;20488;-61
2022/08/12 23:59:52;;;;;;;2.10;2.00;;;;;;;;;;10062909;28;20503;-61
